createdAt,value
2018-06-08T00:01:51.402Z,11.05
2018-06-08T00:04:19.925Z,13.20
2018-06-08T00:06:48.428Z,7.67
2018-06-08T00:09:16.920Z,7.87
2018-06-08T00:11:46.627Z,5.20
2018-06-08T00:14:15.169Z,6.80
2018-06-08T00:16:43.678Z,7.55
2018-06-08T00:19:12.210Z,8.48
2018-06-08T00:21:40.700Z,8.13
2018-06-08T00:24:09.206Z,5.95
2018-06-08T00:26:37.717Z,4.70
2018-06-08T00:29:06.256Z,7.40
2018-06-08T00:31:34.770Z,7.42
2018-06-08T00:34:03.290Z,9.18
2018-06-08T00:36:31.808Z,6.67
2018-06-08T00:39:00.314Z,7.60
2018-06-08T00:41:28.854Z,10.55
2018-06-08T00:43:57.345Z,7.85
2018-06-08T00:46:25.820Z,12.25
2018-06-08T00:48:54.354Z,20.48
2018-06-08T00:51:22.865Z,21.90
2018-06-08T00:53:51.376Z,14.53
2018-06-08T00:56:31.062Z,10.53
2018-06-08T00:58:59.562Z,9.60
2018-06-08T01:01:28.136Z,15.60
2018-06-08T01:03:56.637Z,10.58
2018-06-08T01:06:25.137Z,12.73
2018-06-08T01:08:53.658Z,16.57
2018-06-08T01:11:22.161Z,14.33
2018-06-08T01:13:50.718Z,13.62
2018-06-08T01:16:19.262Z,15.05
2018-06-08T01:18:47.765Z,15.48
2018-06-08T01:21:16.274Z,16.87
2018-06-08T01:23:44.777Z,13.78
2018-06-08T01:26:13.307Z,11.38
2018-06-08T01:28:41.845Z,12.60
2018-06-08T01:31:10.350Z,10.10
2018-06-08T01:33:38.874Z,10.50
2018-06-08T01:36:07.415Z,13.88
2018-06-08T01:38:35.955Z,15.38
2018-06-08T01:41:04.545Z,9.93
2018-06-08T01:43:33.078Z,11.55
2018-06-08T01:46:01.589Z,9.88
2018-06-08T01:48:30.077Z,16.05
2018-06-08T01:50:58.600Z,13.83
2018-06-08T01:53:27.123Z,17.42
2018-06-08T01:55:55.636Z,15.28
2018-06-08T01:58:24.171Z,14.68
2018-06-08T02:00:52.726Z,16.30
2018-06-08T02:03:21.228Z,10.50
2018-06-08T02:05:49.725Z,13.40
2018-06-08T02:08:18.225Z,12.05
2018-06-08T02:10:46.721Z,11.50
2018-06-08T02:13:15.295Z,10.55
2018-06-08T02:15:43.826Z,12.10
2018-06-08T02:18:12.336Z,10.88
2018-06-08T02:20:41.288Z,9.90
2018-06-08T02:23:09.818Z,10.00
2018-06-08T02:25:38.348Z,13.40
2018-06-08T02:28:06.562Z,12.75
2018-06-08T02:30:35.102Z,7.80
2018-06-08T02:33:03.645Z,11.70
2018-06-08T02:35:32.175Z,15.28
2018-06-08T02:38:00.718Z,10.93
2018-06-08T02:40:29.234Z,12.43
2018-06-08T02:42:57.727Z,10.38
2018-06-08T02:45:26.243Z,8.45
2018-06-08T02:47:54.746Z,7.95
2018-06-08T02:50:23.295Z,11.88
2018-06-08T02:52:51.798Z,8.35
2018-06-08T02:55:20.330Z,8.53
2018-06-08T02:57:48.884Z,15.03
2018-06-08T03:00:17.404Z,9.43
2018-06-08T03:02:45.946Z,12.43
2018-06-08T03:05:14.510Z,11.70
2018-06-08T03:07:43.013Z,8.05
2018-06-08T03:10:11.521Z,10.15
2018-06-08T03:12:40.036Z,8.80
2018-06-08T03:15:08.598Z,8.43
2018-06-08T03:17:37.129Z,9.68
2018-06-08T03:20:05.710Z,9.03
2018-06-08T03:22:34.223Z,9.15
2018-06-08T03:25:02.786Z,11.55
2018-06-08T03:27:30.985Z,9.50
2018-06-08T03:29:59.490Z,11.90
2018-06-08T03:32:28.009Z,10.05
2018-06-08T03:34:56.556Z,16.27
2018-06-08T03:37:25.098Z,11.60
2018-06-08T03:39:53.600Z,9.60
2018-06-08T03:42:22.138Z,10.95
2018-06-08T03:44:50.687Z,12.85
2018-06-08T03:47:19.202Z,13.78
2018-06-08T03:49:47.750Z,14.00
2018-06-08T03:52:16.287Z,16.45
2018-06-08T03:54:44.798Z,14.15
2018-06-08T03:57:13.323Z,10.23
2018-06-08T03:59:41.843Z,11.80
2018-06-08T04:02:10.353Z,11.63
2018-06-08T04:04:38.868Z,15.28
2018-06-08T04:07:07.386Z,15.75
2018-06-08T04:09:35.923Z,16.32
2018-06-08T04:12:04.568Z,14.28
2018-06-08T04:14:33.170Z,13.98
2018-06-08T04:17:01.715Z,16.05
2018-06-08T04:19:30.240Z,14.03
2018-06-08T04:21:58.756Z,14.23
2018-06-08T04:24:27.290Z,10.13
2018-06-08T04:26:55.817Z,22.53
2018-06-08T04:29:24.367Z,24.95
2018-06-08T04:31:52.915Z,26.43
2018-06-08T04:34:21.452Z,18.42
2018-06-08T04:36:49.972Z,20.53
2018-06-08T04:39:18.494Z,15.60
2018-06-08T04:41:47.002Z,16.48
2018-06-08T04:44:15.522Z,16.70
2018-06-08T04:46:44.070Z,11.57
2018-06-08T04:49:12.575Z,17.20
2018-06-08T04:51:41.188Z,11.20
2018-06-08T04:54:09.710Z,18.77
2018-06-08T04:56:38.286Z,15.10
2018-06-08T04:59:06.904Z,13.40
2018-06-08T05:01:35.430Z,11.03
2018-06-08T05:04:03.950Z,16.23
2018-06-08T05:06:32.459Z,10.97
2018-06-08T05:09:00.946Z,19.40
2018-06-08T05:11:29.505Z,21.73
2018-06-08T05:13:58.076Z,13.83
2018-06-08T05:16:26.613Z,17.50
2018-06-08T05:18:55.166Z,17.50
2018-06-08T05:21:23.694Z,16.13
2018-06-08T05:23:52.229Z,16.23
2018-06-08T05:26:20.762Z,10.93
2018-06-08T05:28:49.336Z,17.73
2018-06-08T05:31:17.888Z,14.90
2018-06-08T05:33:46.402Z,14.60
2018-06-08T05:36:14.990Z,11.60
2018-06-08T05:38:43.493Z,11.13
2018-06-08T05:41:12.082Z,12.10
2018-06-08T05:43:40.626Z,19.30
2018-06-08T05:46:09.136Z,11.10
2018-06-08T05:48:37.665Z,13.53
2018-06-08T05:51:06.295Z,12.53
2018-06-08T05:53:34.823Z,14.53
2018-06-08T05:56:03.377Z,10.53
2018-06-08T05:58:31.873Z,14.93
2018-06-08T06:01:00.527Z,10.40
2018-06-08T06:03:29.012Z,11.00
2018-06-08T06:05:57.559Z,10.60
2018-06-08T06:08:26.071Z,11.47
2018-06-08T06:10:54.626Z,12.73
2018-06-08T06:13:23.127Z,12.60
2018-06-08T06:15:51.661Z,13.20
2018-06-08T06:18:20.168Z,14.23
2018-06-08T06:20:48.729Z,14.00
2018-06-08T06:23:17.267Z,10.80
2018-06-08T06:25:45.797Z,11.27
2018-06-08T06:28:14.342Z,15.53
2018-06-08T06:30:42.852Z,8.87
2018-06-08T06:33:11.357Z,12.23
2018-06-08T06:35:39.906Z,10.07
2018-06-08T06:38:08.475Z,13.23
2018-06-08T06:40:36.994Z,11.30
2018-06-08T06:43:05.609Z,15.50
2018-06-08T06:45:34.186Z,9.13
2018-06-08T06:48:02.698Z,8.90
2018-06-08T06:50:31.194Z,16.93
2018-06-08T06:52:59.710Z,10.00
2018-06-08T06:55:28.286Z,10.80
2018-06-08T06:57:56.851Z,13.30
2018-06-08T07:00:25.398Z,10.30
2018-06-08T07:02:54.050Z,8.83
2018-06-08T07:05:22.543Z,12.13
2018-06-08T07:07:51.078Z,8.13
2018-06-08T07:10:19.600Z,8.77
2018-06-08T07:12:48.225Z,26.00
2018-06-08T07:15:16.717Z,8.23
2018-06-08T07:17:45.197Z,11.03
2018-06-08T07:20:13.687Z,14.53
2018-06-08T07:22:42.195Z,7.63
2018-06-08T07:25:10.717Z,7.50
2018-06-08T07:27:39.202Z,8.60
2018-06-08T07:30:07.747Z,9.50
2018-06-08T07:32:36.242Z,9.50
2018-06-08T07:35:04.776Z,8.33
2018-06-08T07:37:33.282Z,9.00
2018-06-08T07:40:01.821Z,7.00
2018-06-08T07:42:30.358Z,10.37
2018-06-08T07:44:58.857Z,10.03
2018-06-08T07:47:27.322Z,7.93
2018-06-08T07:49:55.830Z,7.17
2018-06-08T07:52:24.339Z,7.13
2018-06-08T07:54:52.830Z,7.30
2018-06-08T07:57:21.373Z,9.47
2018-06-08T07:59:49.862Z,11.10
2018-06-08T08:02:18.403Z,11.40
2018-06-08T08:04:46.946Z,19.67
2018-06-08T08:07:15.434Z,8.87
2018-06-08T08:09:43.932Z,6.00
2018-06-08T08:12:12.446Z,12.57
2018-06-08T08:14:40.946Z,8.87
2018-06-08T08:17:09.480Z,8.80
2018-06-08T08:19:37.648Z,7.10
2018-06-08T08:22:06.189Z,9.57
2018-06-08T08:24:34.667Z,5.87
2018-06-08T08:27:03.230Z,7.43
2018-06-08T08:29:31.718Z,8.20
2018-06-08T08:32:00.279Z,6.30
2018-06-08T08:34:28.784Z,13.00
2018-06-08T08:36:57.309Z,11.13
2018-06-08T08:39:25.792Z,16.47
2018-06-08T08:41:54.286Z,5.87
2018-06-08T08:44:22.801Z,7.97
2018-06-08T08:46:51.299Z,5.93
2018-06-08T08:49:19.811Z,6.63
2018-06-08T08:51:48.864Z,6.00
2018-06-08T08:54:17.354Z,8.03
2018-06-08T08:56:45.909Z,14.03
2018-06-08T08:59:14.434Z,6.27
2018-06-08T09:01:42.924Z,6.40
2018-06-08T09:04:11.459Z,6.77
2018-06-08T09:06:40.020Z,6.63
2018-06-08T09:09:08.527Z,6.50
2018-06-08T09:11:37.069Z,6.30
2018-06-08T09:14:05.678Z,6.50
2018-06-08T09:16:34.180Z,6.27
2018-06-08T09:19:02.663Z,8.20
2018-06-08T09:21:31.144Z,7.93
2018-06-08T09:23:59.620Z,7.57
2018-06-08T09:26:28.102Z,6.80
2018-06-08T09:28:56.642Z,5.60
2018-06-08T09:31:25.145Z,8.70
2018-06-08T09:33:53.657Z,7.57
2018-06-08T09:36:22.225Z,6.23
2018-06-08T09:38:50.735Z,5.97
2018-06-08T09:41:19.231Z,6.10
2018-06-08T09:43:47.744Z,9.00
2018-06-08T09:46:16.312Z,7.63
2018-06-08T09:48:44.815Z,10.00
2018-06-08T09:51:13.343Z,7.00
2018-06-08T09:53:41.869Z,9.10
2018-06-08T09:56:10.361Z,7.03
2018-06-08T09:58:38.930Z,9.37
2018-06-08T10:01:07.420Z,10.07
2018-06-08T10:03:35.954Z,7.80
2018-06-08T10:06:04.490Z,10.00
2018-06-08T10:08:32.996Z,10.27
2018-06-08T10:11:01.500Z,7.20
2018-06-08T10:13:29.994Z,7.63
2018-06-08T10:15:58.512Z,7.30
2018-06-08T10:18:27.042Z,9.70
2018-06-08T10:20:55.705Z,18.50
2018-06-08T10:23:24.208Z,11.43
2018-06-08T10:25:52.872Z,8.93
2018-06-08T10:28:21.474Z,6.70
2018-06-08T10:30:50.032Z,7.90
2018-06-08T10:33:18.566Z,6.90
2018-06-08T10:35:47.058Z,6.77
2018-06-08T10:38:15.574Z,5.97
2018-06-08T10:40:44.221Z,8.80
2018-06-08T10:43:12.722Z,12.67
2018-06-08T10:45:41.334Z,6.57
2018-06-08T10:48:10.613Z,6.43
2018-06-08T10:50:39.142Z,6.27
2018-06-08T10:53:07.702Z,8.73
2018-06-08T10:55:36.263Z,7.40
2018-06-08T10:58:04.876Z,6.92
2018-06-08T11:00:33.399Z,9.38
2018-06-08T11:03:01.944Z,6.43
2018-06-08T11:05:30.478Z,7.03
2018-06-08T11:07:58.985Z,6.73
2018-06-08T11:10:27.567Z,8.57
2018-06-08T11:12:56.056Z,8.50
2018-06-08T11:15:24.629Z,7.77
2018-06-08T11:17:53.248Z,12.10
2018-06-08T11:20:22.531Z,7.50
2018-06-08T11:22:51.019Z,6.17
2018-06-08T11:25:19.621Z,6.03
2018-06-08T11:27:48.135Z,6.10
2018-06-08T11:30:16.648Z,5.83
2018-06-08T11:32:45.147Z,6.63
2018-06-08T11:35:13.668Z,5.83
2018-06-08T11:37:42.465Z,6.80
2018-06-08T11:40:11.049Z,5.57
2018-06-08T11:42:39.570Z,8.53
2018-06-08T11:45:08.103Z,6.50
2018-06-08T11:47:36.640Z,7.23
2018-06-08T11:50:05.196Z,6.13
2018-06-08T11:52:33.707Z,6.23
2018-06-08T11:55:02.273Z,5.40
2018-06-08T11:57:30.798Z,6.20
2018-06-08T11:59:59.327Z,6.30
2018-06-08T12:02:27.889Z,9.03
2018-06-08T12:04:56.095Z,6.50
2018-06-08T12:07:24.581Z,10.80
2018-06-08T12:09:53.105Z,6.53
2018-06-08T12:12:21.607Z,5.87
2018-06-08T12:14:50.103Z,6.13
2018-06-08T12:17:18.614Z,5.20
2018-06-08T12:19:47.168Z,6.10
2018-06-08T12:22:15.686Z,5.70
2018-06-08T12:24:44.191Z,8.07
2018-06-08T12:27:12.772Z,5.80
2018-06-08T12:29:41.326Z,10.43
2018-06-08T12:32:09.881Z,8.87
2018-06-08T12:34:38.348Z,5.90
2018-06-08T12:37:06.843Z,6.57
2018-06-08T12:39:35.405Z,6.33
2018-06-08T12:42:03.924Z,6.33
2018-06-08T12:44:32.469Z,6.27
2018-06-08T12:47:00.997Z,7.80
2018-06-08T12:49:29.522Z,5.93
2018-06-08T12:51:58.010Z,8.17
2018-06-08T12:54:26.542Z,5.45
2018-06-08T12:56:55.041Z,6.23
2018-06-08T12:59:23.517Z,7.73
2018-06-08T13:01:52.099Z,5.93
2018-06-08T13:04:20.596Z,6.93
2018-06-08T13:06:49.106Z,13.23
2018-06-08T13:09:17.635Z,12.50
2018-06-08T13:11:46.177Z,6.00
2018-06-08T13:14:14.842Z,8.23
2018-06-08T13:16:43.348Z,8.53
2018-06-08T13:19:11.896Z,8.03
2018-06-08T13:21:40.424Z,7.33
2018-06-08T13:24:08.913Z,6.60
2018-06-08T13:26:37.423Z,6.80
2018-06-08T13:29:06.002Z,6.30
2018-06-08T13:31:34.498Z,11.47
2018-06-08T13:34:03.022Z,6.33
2018-06-08T13:36:31.536Z,9.17
2018-06-08T13:39:00.102Z,10.40
2018-06-08T13:41:28.600Z,6.60
2018-06-08T13:43:57.230Z,6.40
2018-06-08T13:46:48.710Z,8.10
2018-06-08T13:49:17.218Z,5.53
2018-06-08T13:51:45.843Z,9.50
2018-06-08T13:54:14.350Z,9.47
2018-06-08T13:56:42.867Z,5.50
2018-06-08T13:59:11.062Z,5.90
2018-06-08T14:01:39.549Z,9.80
2018-06-08T14:04:08.058Z,6.27
2018-06-08T14:06:37.120Z,6.57
2018-06-08T14:09:06.634Z,4.85
2018-06-08T14:11:35.146Z,10.30
2018-06-08T14:14:04.001Z,8.80
2018-06-08T14:16:32.578Z,6.67
2018-06-08T14:19:01.095Z,5.60
2018-06-08T14:21:29.608Z,9.83
2018-06-08T14:23:58.109Z,8.57
2018-06-08T14:26:26.691Z,9.73
2018-06-08T14:28:55.201Z,7.93
2018-06-08T14:31:23.811Z,9.37
2018-06-08T14:33:52.298Z,7.10
2018-06-08T14:36:20.846Z,6.50
2018-06-08T14:38:49.334Z,5.58
2018-06-08T14:41:17.954Z,6.97
2018-06-08T14:43:46.487Z,6.10
2018-06-08T14:46:15.148Z,6.00
2018-06-08T14:48:43.912Z,6.90
2018-06-08T14:51:12.405Z,6.17
2018-06-08T14:53:41.003Z,6.20
2018-06-08T14:56:09.514Z,7.00
2018-06-08T14:58:38.028Z,10.50
2018-06-08T15:01:06.596Z,5.83
2018-06-08T15:03:35.083Z,9.27
2018-06-08T15:06:03.630Z,8.50
2018-06-08T15:08:32.141Z,6.70
2018-06-08T15:11:00.635Z,5.77
2018-06-08T15:13:29.128Z,6.43
2018-06-08T15:15:57.610Z,7.60
2018-06-08T15:18:26.118Z,8.60
2018-06-08T15:20:54.630Z,6.57
2018-06-08T15:23:23.116Z,12.43
2018-06-08T15:25:51.601Z,9.20
2018-06-08T15:28:20.119Z,5.63
2018-06-08T15:30:48.628Z,6.00
2018-06-08T15:33:17.126Z,6.40
2018-06-08T15:35:45.614Z,6.53
2018-06-08T15:38:14.092Z,5.73
2018-06-08T15:40:42.670Z,6.53
2018-06-08T15:43:11.116Z,8.33
2018-06-08T15:45:39.623Z,8.80
2018-06-08T15:48:08.099Z,5.23
2018-06-08T15:50:36.613Z,8.40
2018-06-08T15:53:05.204Z,7.20
2018-06-08T15:55:33.734Z,7.77
2018-06-08T15:58:02.511Z,5.60
2018-06-08T16:00:31.052Z,7.50
2018-06-08T16:02:59.511Z,6.30
2018-06-08T16:05:28.056Z,7.47
2018-06-08T16:07:56.565Z,18.63
2018-06-08T16:10:25.050Z,12.20
2018-06-08T16:12:53.548Z,5.20
2018-06-08T16:15:22.034Z,7.00
2018-06-08T16:17:50.570Z,10.43
2018-06-08T16:20:19.110Z,5.33
2018-06-08T16:22:47.634Z,5.63
2018-06-08T16:25:16.098Z,6.13
2018-06-08T16:27:44.607Z,5.30
2018-06-08T16:30:13.108Z,7.93
2018-06-08T16:32:41.600Z,8.87
2018-06-08T16:35:10.202Z,6.83
2018-06-08T16:37:38.725Z,4.87
2018-06-08T16:40:07.236Z,8.67
2018-06-08T16:42:35.866Z,9.03
2018-06-08T16:45:04.412Z,6.80
2018-06-08T16:47:32.904Z,8.80
2018-06-08T16:50:01.604Z,4.73
2018-06-08T16:52:30.129Z,5.27
2018-06-08T16:54:58.668Z,5.27
2018-06-08T16:57:27.158Z,7.23
2018-06-08T16:59:55.636Z,7.00
2018-06-08T17:02:24.150Z,9.90
2018-06-08T17:04:52.840Z,5.57
2018-06-08T17:07:21.365Z,6.77
2018-06-08T17:09:49.891Z,5.33
2018-06-08T17:12:18.379Z,5.93
2018-06-08T17:14:46.878Z,15.37
2018-06-08T17:17:15.410Z,5.20
2018-06-08T17:19:43.884Z,6.03
2018-06-08T17:22:12.397Z,5.10
2018-06-08T17:24:40.958Z,5.87
2018-06-08T17:27:09.470Z,8.17
2018-06-08T17:29:38.086Z,6.57
2018-06-08T17:32:06.633Z,5.57
2018-06-08T17:34:35.156Z,6.70
2018-06-08T17:37:03.659Z,5.27
2018-06-08T17:39:32.310Z,6.00
2018-06-08T17:42:00.823Z,5.37
2018-06-08T17:44:29.442Z,5.50
2018-06-08T17:46:58.030Z,5.87
2018-06-08T17:49:26.544Z,4.80
2018-06-08T17:51:55.121Z,6.13
2018-06-08T17:54:23.791Z,6.00
2018-06-08T17:56:52.278Z,5.33
2018-06-08T17:59:20.799Z,8.20
2018-06-08T18:01:49.294Z,6.90
2018-06-08T18:04:17.822Z,5.57
2018-06-08T18:06:46.334Z,9.30
2018-06-08T18:09:14.919Z,5.13
2018-06-08T18:11:43.389Z,10.20
2018-06-08T18:14:11.877Z,5.53
2018-06-08T18:16:40.349Z,6.90
2018-06-08T18:19:08.898Z,6.47
2018-06-08T18:21:37.462Z,6.77
2018-06-08T18:24:06.028Z,6.50
2018-06-08T18:26:34.517Z,6.13
2018-06-08T18:29:03.111Z,6.20
2018-06-08T18:31:31.653Z,6.93
2018-06-08T18:34:00.172Z,5.63
2018-06-08T18:36:28.734Z,5.40
2018-06-08T18:38:57.237Z,4.83
2018-06-08T18:41:25.461Z,7.13
2018-06-08T18:43:53.955Z,5.83
2018-06-08T18:46:22.462Z,5.27
2018-06-08T18:48:51.296Z,6.10
2018-06-08T18:51:19.835Z,5.90
2018-06-08T18:53:48.370Z,6.23
2018-06-08T18:56:16.893Z,6.10
2018-06-08T18:58:45.356Z,6.37
2018-06-08T19:01:13.855Z,6.20
2018-06-08T19:03:42.423Z,8.33
2018-06-08T19:06:10.898Z,6.87
2018-06-08T19:08:39.397Z,6.40
2018-06-08T19:11:07.900Z,7.47
2018-06-08T19:13:36.394Z,5.60
2018-06-08T19:16:04.910Z,5.40
2018-06-08T19:18:33.440Z,7.73
2018-06-08T19:21:01.978Z,10.87
2018-06-08T19:23:30.504Z,10.73
2018-06-08T19:25:59.060Z,10.17
2018-06-08T19:28:27.590Z,5.80
2018-06-08T19:30:56.131Z,10.63
2018-06-08T19:33:24.690Z,6.30
2018-06-08T19:35:53.204Z,6.10
2018-06-08T19:38:21.782Z,5.63
2018-06-08T19:40:50.298Z,6.70
2018-06-08T19:43:18.808Z,6.63
2018-06-08T19:45:47.347Z,5.80
2018-06-08T19:48:15.857Z,6.93
2018-06-08T19:50:44.387Z,6.37
2018-06-08T19:53:12.934Z,7.40
2018-06-08T19:55:41.495Z,7.23
2018-06-08T19:58:11.179Z,14.03
2018-06-08T20:00:39.706Z,6.57
2018-06-08T20:03:09.346Z,6.13
2018-06-08T20:05:37.870Z,6.97
2018-06-08T20:08:06.486Z,6.30
2018-06-08T20:10:34.988Z,7.60
2018-06-08T20:13:03.492Z,7.00
2018-06-08T20:15:32.040Z,6.37
2018-06-08T20:18:00.570Z,7.00
2018-06-08T20:20:29.050Z,8.47
2018-06-08T20:22:57.561Z,10.93
2018-06-08T20:25:26.107Z,11.07
2018-06-08T20:27:54.643Z,10.07
2018-06-08T20:30:23.128Z,7.10
2018-06-08T20:32:51.647Z,11.33
2018-06-08T20:35:20.187Z,12.35
2018-06-08T20:37:48.716Z,11.53
2018-06-08T20:40:17.294Z,7.73
2018-06-08T20:42:45.798Z,10.40
2018-06-08T20:45:14.374Z,9.07
2018-06-08T20:47:42.869Z,6.60
2018-06-08T20:50:11.453Z,9.77
2018-06-08T20:52:39.960Z,8.20
2018-06-08T20:55:08.505Z,6.23
2018-06-08T20:57:37.058Z,7.43
2018-06-08T21:00:05.561Z,7.23
2018-06-08T21:02:34.182Z,11.60
2018-06-08T21:05:02.664Z,7.10
2018-06-08T21:07:31.162Z,8.87
2018-06-08T21:09:59.670Z,9.50
2018-06-08T21:12:28.189Z,6.83
2018-06-08T21:14:56.715Z,6.93
2018-06-08T21:17:25.361Z,8.17
2018-06-08T21:19:53.842Z,7.07
2018-06-08T21:22:22.358Z,6.97
2018-06-08T21:24:50.896Z,7.80
2018-06-08T21:27:19.400Z,6.60
2018-06-08T21:29:47.886Z,6.97
2018-06-08T21:32:16.466Z,8.03
2018-06-08T21:34:44.970Z,10.30
2018-06-08T21:37:13.475Z,9.93
2018-06-08T21:39:41.964Z,7.43
2018-06-08T21:42:10.456Z,7.73
2018-06-08T21:44:38.936Z,6.77
2018-06-08T21:47:07.470Z,10.03
2018-06-08T21:49:35.949Z,6.17
2018-06-08T21:52:04.480Z,6.73
2018-06-08T21:54:33.050Z,6.80
2018-06-08T21:57:01.523Z,7.90
2018-06-08T21:59:30.038Z,8.00
2018-06-08T22:01:58.539Z,10.07
2018-06-08T22:04:27.093Z,8.30
2018-06-08T22:06:55.600Z,7.57
2018-06-08T22:09:24.114Z,7.23
2018-06-08T22:11:52.642Z,8.60
2018-06-08T22:14:21.212Z,7.77
2018-06-08T22:16:49.695Z,9.03
2018-06-08T22:19:18.246Z,13.30
2018-06-08T22:21:46.800Z,8.30
2018-06-08T22:24:15.431Z,7.70
2018-06-08T22:26:43.913Z,7.00
2018-06-08T22:29:12.435Z,7.20
2018-06-08T22:31:40.953Z,7.70
2018-06-08T22:34:09.460Z,7.73
2018-06-08T22:36:38.003Z,7.80
2018-06-08T22:39:07.286Z,8.30
2018-06-08T22:41:35.838Z,7.80
2018-06-08T22:44:04.342Z,7.97
2018-06-08T22:46:32.853Z,7.37
2018-06-08T22:49:01.368Z,7.90
2018-06-08T22:51:29.858Z,7.83
2018-06-08T22:53:58.372Z,8.43
2018-06-08T22:56:27.003Z,11.13
2018-06-08T22:58:55.524Z,8.40
2018-06-08T23:01:24.005Z,7.87
2018-06-08T23:03:52.502Z,9.80
2018-06-08T23:06:21.012Z,8.10
2018-06-08T23:08:49.522Z,10.87
2018-06-08T23:11:18.085Z,9.83
2018-06-08T23:13:46.602Z,9.30
2018-06-08T23:16:15.106Z,8.87
2018-06-08T23:18:43.597Z,9.03
2018-06-08T23:21:12.091Z,8.80
2018-06-08T23:23:40.610Z,9.80
2018-06-08T23:26:09.094Z,9.20
2018-06-08T23:28:37.600Z,9.57
2018-06-08T23:31:06.133Z,11.13
2018-06-08T23:33:34.665Z,8.87
2018-06-08T23:36:03.230Z,8.87
2018-06-08T23:38:31.712Z,10.50
2018-06-08T23:41:00.194Z,9.47
2018-06-08T23:43:28.682Z,10.37
2018-06-08T23:45:57.203Z,9.83
2018-06-08T23:48:25.686Z,9.97
2018-06-08T23:50:54.197Z,8.60
2018-06-08T23:53:22.712Z,13.77
2018-06-08T23:55:51.266Z,9.13
2018-06-08T23:58:19.778Z,10.20
